createdAt,value
2022-07-31T00:00:30.935Z,20.30
2022-07-31T00:03:03.972Z,20.30
2022-07-31T00:05:41.788Z,20.30
2022-07-31T00:08:17.679Z,20.20
2022-07-31T00:10:55.114Z,20.20
2022-07-31T00:13:57.158Z,20.20
2022-07-31T00:16:26.111Z,20.20
2022-07-31T00:19:18.666Z,20.10
2022-07-31T00:21:52.026Z,20.10
2022-07-31T00:24:31.318Z,20.10
2022-07-31T00:27:13.832Z,20.10
2022-07-31T00:29:49.612Z,20.00
2022-07-31T00:32:23.226Z,19.80
2022-07-31T00:35:12.328Z,19.70
2022-07-31T00:38:02.123Z,19.60
2022-07-31T00:40:50.958Z,19.60
2022-07-31T00:43:23.567Z,19.60
2022-07-31T00:46:00.563Z,19.60
2022-07-31T00:48:34.148Z,19.50
2022-07-31T00:51:19.165Z,19.40
2022-07-31T00:53:53.620Z,19.40
2022-07-31T00:56:32.001Z,19.30
2022-07-31T00:59:07.030Z,19.20
2022-07-31T01:01:39.919Z,19.20
2022-07-31T01:04:15.341Z,19.10
2022-07-31T01:06:54.331Z,19.10
2022-07-31T01:09:22.854Z,19.10
2022-07-31T01:12:01.952Z,19.00
2022-07-31T01:14:43.886Z,18.90
2022-07-31T01:17:17.408Z,18.90
2022-07-31T01:19:53.951Z,18.90
2022-07-31T01:22:58.820Z,18.90
2022-07-31T01:25:50.719Z,18.90
2022-07-31T01:28:48.310Z,18.80
2022-07-31T01:31:27.104Z,18.80
2022-07-31T01:34:10.936Z,18.70
2022-07-31T01:36:47.334Z,18.70
2022-07-31T01:39:15.756Z,18.70
2022-07-31T01:41:48.644Z,18.60
2022-07-31T01:44:20.097Z,18.60
2022-07-31T01:46:49.743Z,18.60
2022-07-31T01:49:20.175Z,18.50
2022-07-31T01:51:49.660Z,18.50
2022-07-31T01:54:20.815Z,18.40
2022-07-31T01:56:50.919Z,18.30
2022-07-31T01:59:24.619Z,18.10
2022-07-31T02:02:10.592Z,18.00
2022-07-31T02:04:40.582Z,18.10
2022-07-31T02:07:09.906Z,18.10
2022-07-31T02:09:52.455Z,18.10
2022-07-31T02:12:32.123Z,18.20
2022-07-31T02:15:03.958Z,18.20
2022-07-31T02:17:32.883Z,18.10
2022-07-31T02:20:34.589Z,18.10
2022-07-31T02:23:03.049Z,18.10
2022-07-31T02:25:33.105Z,18.00
2022-07-31T02:28:07.136Z,18.00
2022-07-31T02:30:39.045Z,18.00
2022-07-31T02:33:12.605Z,18.00
2022-07-31T02:35:45.600Z,18.00
2022-07-31T02:38:23.229Z,18.00
2022-07-31T02:40:56.147Z,17.90
2022-07-31T02:43:26.702Z,17.80
2022-07-31T02:45:58.945Z,17.70
2022-07-31T02:48:28.172Z,17.60
2022-07-31T02:51:01.100Z,17.60
2022-07-31T02:53:31.123Z,17.60
2022-07-31T02:56:04.571Z,17.50
2022-07-31T02:58:39.067Z,17.50
2022-07-31T03:01:09.786Z,17.50
2022-07-31T03:03:39.461Z,17.40
2022-07-31T03:06:07.931Z,17.30
2022-07-31T03:08:36.607Z,17.30
2022-07-31T03:11:06.563Z,17.30
2022-07-31T03:13:37.685Z,17.30
2022-07-31T03:16:11.502Z,17.30
2022-07-31T03:18:41.780Z,17.20
2022-07-31T03:21:12.114Z,17.20
2022-07-31T03:23:40.896Z,17.20
2022-07-31T03:26:15.227Z,17.20
2022-07-31T03:28:43.813Z,17.20
2022-07-31T03:31:13.712Z,17.20
2022-07-31T03:33:42.636Z,17.20
2022-07-31T03:36:11.124Z,17.20
2022-07-31T03:38:42.648Z,17.10
2022-07-31T03:41:21.943Z,17.10
2022-07-31T03:43:51.799Z,17.20
2022-07-31T03:46:25.542Z,17.10
2022-07-31T03:48:54.387Z,17.20
2022-07-31T03:51:25.949Z,17.30
2022-07-31T03:53:54.468Z,17.30
2022-07-31T03:56:45.284Z,17.30
2022-07-31T03:59:16.012Z,17.40
2022-07-31T04:01:58.311Z,17.40
2022-07-31T04:04:50.028Z,17.40
2022-07-31T04:07:18.447Z,17.50
2022-07-31T04:09:47.146Z,17.40
2022-07-31T04:12:16.993Z,17.40
2022-07-31T04:14:45.301Z,17.40
2022-07-31T04:17:15.219Z,17.50
2022-07-31T04:19:43.593Z,17.50
2022-07-31T04:22:11.902Z,17.60
2022-07-31T04:24:40.806Z,17.60
2022-07-31T04:27:12.883Z,17.60
2022-07-31T04:29:45.741Z,17.60
2022-07-31T04:32:15.500Z,17.60
2022-07-31T04:35:05.184Z,17.70
2022-07-31T04:37:34.494Z,17.80
2022-07-31T04:40:04.230Z,17.80
2022-07-31T04:42:32.906Z,17.80
2022-07-31T04:45:01.657Z,17.70
2022-07-31T04:47:31.414Z,17.90
2022-07-31T04:50:00.062Z,17.90
2022-07-31T04:52:28.433Z,17.90
2022-07-31T04:55:02.810Z,18.00
2022-07-31T04:57:31.436Z,18.10
2022-07-31T05:00:01.369Z,18.10
2022-07-31T05:02:34.846Z,18.10
2022-07-31T05:05:03.354Z,18.10
2022-07-31T05:07:35.473Z,18.20
2022-07-31T05:10:10.216Z,18.10
2022-07-31T05:12:38.571Z,18.10
2022-07-31T05:15:08.254Z,18.20
2022-07-31T05:17:38.019Z,18.20
2022-07-31T05:20:26.439Z,18.30
2022-07-31T05:23:06.937Z,18.40
2022-07-31T05:26:05.177Z,18.40
2022-07-31T05:28:33.495Z,18.40
2022-07-31T05:31:02.445Z,18.40
2022-07-31T05:33:33.741Z,18.50
2022-07-31T05:36:02.999Z,18.50
2022-07-31T05:38:31.411Z,18.50
2022-07-31T05:41:22.782Z,18.50
2022-07-31T05:43:59.883Z,18.50
2022-07-31T05:46:36.407Z,18.50
2022-07-31T05:49:06.208Z,18.60
2022-07-31T05:51:34.638Z,18.50
2022-07-31T05:54:02.950Z,18.50
2022-07-31T05:56:49.902Z,18.50
2022-07-31T05:59:22.043Z,18.60
2022-07-31T06:01:50.591Z,18.60
2022-07-31T06:04:20.343Z,18.60
2022-07-31T06:06:49.303Z,18.70
2022-07-31T06:09:17.589Z,18.60
2022-07-31T06:11:47.435Z,18.70
2022-07-31T06:14:15.714Z,18.80
2022-07-31T06:17:01.422Z,18.80
2022-07-31T06:19:31.147Z,19.00
2022-07-31T06:21:59.592Z,19.00
2022-07-31T06:24:27.943Z,19.30
2022-07-31T06:26:59.858Z,19.50
2022-07-31T06:29:41.313Z,19.70
2022-07-31T06:32:11.340Z,19.90
2022-07-31T06:34:41.701Z,20.00
2022-07-31T06:37:10.034Z,20.20
2022-07-31T06:39:55.555Z,20.30
2022-07-31T06:42:36.871Z,20.50
2022-07-31T06:45:05.918Z,20.60
2022-07-31T06:47:52.111Z,20.70
2022-07-31T06:50:44.895Z,20.90
2022-07-31T06:53:33.395Z,21.10
2022-07-31T06:56:02.497Z,21.40
2022-07-31T06:58:31.985Z,21.70
2022-07-31T07:01:00.411Z,21.80
2022-07-31T07:03:29.038Z,21.90
2022-07-31T07:05:59.598Z,21.90
2022-07-31T07:08:28.000Z,21.90
2022-07-31T07:10:56.438Z,22.00
2022-07-31T07:13:45.778Z,22.30
2022-07-31T07:16:16.459Z,22.40
2022-07-31T07:18:44.911Z,22.70
2022-07-31T07:21:15.095Z,22.70
2022-07-31T07:23:43.470Z,22.50
2022-07-31T07:26:37.950Z,22.50
2022-07-31T07:29:06.263Z,22.40
2022-07-31T07:31:34.952Z,22.30
2022-07-31T07:34:06.138Z,22.30
2022-07-31T07:36:36.600Z,22.30
2022-07-31T07:39:10.324Z,22.30
2022-07-31T07:41:39.554Z,22.30
2022-07-31T07:44:08.370Z,22.30
2022-07-31T07:46:36.700Z,22.30
2022-07-31T07:49:07.145Z,22.30
2022-07-31T07:51:36.937Z,22.30
2022-07-31T07:54:34.284Z,22.40
2022-07-31T07:57:17.668Z,22.40
2022-07-31T08:00:07.199Z,22.60
2022-07-31T08:03:47.343Z,22.70
2022-07-31T08:05:35.886Z,23.20
2022-07-31T08:08:06.211Z,23.40
2022-07-31T08:10:45.093Z,23.60
2022-07-31T08:13:21.324Z,23.80
2022-07-31T08:16:08.187Z,23.90
2022-07-31T08:18:45.124Z,23.70
2022-07-31T08:21:13.496Z,23.60
2022-07-31T08:23:43.517Z,23.60
2022-07-31T08:26:13.910Z,23.50
2022-07-31T08:28:50.402Z,23.70
2022-07-31T08:31:20.368Z,23.80
2022-07-31T08:34:07.475Z,23.50
2022-07-31T08:36:38.410Z,23.40
2022-07-31T08:39:08.430Z,23.40
2022-07-31T08:42:07.535Z,23.20
2022-07-31T08:44:38.531Z,23.10
2022-07-31T08:47:08.286Z,22.90
2022-07-31T08:49:40.941Z,22.80
2022-07-31T08:52:11.161Z,22.70
2022-07-31T08:55:08.746Z,22.70
2022-07-31T08:57:37.409Z,22.70
2022-07-31T09:00:07.470Z,22.70
2022-07-31T09:02:35.779Z,22.80
2022-07-31T09:05:42.131Z,22.70
2022-07-31T09:08:15.114Z,22.50
2022-07-31T09:10:50.357Z,22.40
2022-07-31T09:13:20.483Z,22.40
2022-07-31T09:15:55.926Z,22.50
2022-07-31T09:18:29.841Z,22.40
2022-07-31T09:21:16.600Z,22.40
2022-07-31T09:23:49.194Z,22.40
2022-07-31T09:26:24.361Z,22.30
2022-07-31T09:28:56.101Z,22.30
2022-07-31T09:31:34.412Z,22.30
2022-07-31T09:34:31.182Z,22.20
2022-07-31T09:37:25.054Z,22.40
2022-07-31T09:40:21.294Z,22.40
2022-07-31T09:43:26.174Z,22.60
2022-07-31T09:46:06.600Z,23.00
2022-07-31T09:48:39.488Z,23.20
2022-07-31T09:51:18.279Z,23.40
2022-07-31T09:53:57.617Z,23.60
2022-07-31T09:56:46.809Z,23.50
2022-07-31T09:59:16.721Z,23.50
2022-07-31T10:01:48.580Z,23.50
2022-07-31T10:04:18.393Z,23.50
2022-07-31T10:06:49.756Z,23.50
2022-07-31T10:09:20.441Z,23.50
2022-07-31T10:12:17.049Z,23.50
2022-07-31T10:14:50.857Z,23.50
2022-07-31T10:17:24.710Z,23.50
2022-07-31T10:20:19.233Z,23.40
2022-07-31T10:23:16.115Z,23.30
2022-07-31T10:25:53.815Z,23.30
2022-07-31T10:28:23.057Z,23.30
2022-07-31T10:30:52.926Z,23.30
2022-07-31T10:33:42.908Z,23.30
2022-07-31T10:36:33.905Z,23.30
2022-07-31T10:39:15.394Z,23.30
2022-07-31T10:42:13.878Z,23.30
2022-07-31T10:44:48.977Z,23.50
2022-07-31T10:47:24.014Z,23.50
2022-07-31T10:50:22.023Z,23.50
2022-07-31T10:53:12.444Z,23.60
2022-07-31T10:56:10.840Z,23.70
2022-07-31T10:58:58.047Z,23.70
2022-07-31T11:01:53.134Z,23.70
2022-07-31T11:04:46.195Z,23.90
2022-07-31T11:07:39.568Z,23.90
2022-07-31T11:10:17.087Z,24.00
2022-07-31T11:13:07.493Z,24.10
2022-07-31T11:16:05.169Z,24.50
2022-07-31T11:19:01.345Z,24.60
2022-07-31T11:21:39.886Z,24.80
2022-07-31T11:24:15.896Z,25.00
2022-07-31T11:26:50.618Z,25.10
2022-07-31T11:30:00.626Z,25.00
2022-07-31T11:32:25.316Z,25.00
2022-07-31T11:34:56.111Z,24.80
2022-07-31T11:37:32.476Z,24.60
2022-07-31T11:40:15.570Z,24.70
2022-07-31T11:42:46.239Z,24.70
2022-07-31T11:45:16.732Z,24.70
2022-07-31T11:48:12.225Z,24.50
2022-07-31T11:50:41.223Z,24.30
2022-07-31T11:53:11.780Z,24.20
2022-07-31T11:55:48.650Z,24.20
2022-07-31T11:58:21.694Z,24.20
2022-07-31T12:01:03.930Z,24.10
2022-07-31T12:03:41.493Z,24.00
2022-07-31T12:06:15.724Z,24.20
2022-07-31T12:08:54.115Z,24.20
2022-07-31T12:11:32.303Z,24.20
2022-07-31T12:14:09.834Z,24.20
2022-07-31T12:16:47.052Z,24.20
2022-07-31T12:19:43.607Z,24.30
2022-07-31T12:22:22.095Z,24.50
2022-07-31T12:25:11.474Z,24.30
2022-07-31T12:27:47.572Z,24.20
2022-07-31T12:30:20.334Z,24.10
2022-07-31T12:32:58.988Z,23.90
2022-07-31T12:35:55.059Z,23.90
2022-07-31T12:38:40.735Z,23.70
2022-07-31T12:41:21.826Z,23.60
2022-07-31T12:43:56.087Z,23.60
2022-07-31T12:46:39.925Z,23.50
2022-07-31T12:49:15.176Z,23.60
2022-07-31T12:51:48.906Z,23.60
2022-07-31T12:54:24.112Z,23.80
2022-07-31T12:56:59.891Z,24.00
2022-07-31T12:59:30.939Z,24.10
2022-07-31T13:02:06.972Z,24.20
2022-07-31T13:04:38.424Z,24.20
2022-07-31T13:07:10.086Z,24.40
2022-07-31T13:09:40.678Z,24.60
2022-07-31T13:12:15.613Z,24.60
2022-07-31T13:14:49.269Z,24.70
2022-07-31T13:17:21.361Z,24.70
2022-07-31T13:19:53.645Z,24.70
2022-07-31T13:22:28.628Z,24.70
2022-07-31T13:25:03.122Z,24.60
2022-07-31T13:27:41.364Z,24.40
2022-07-31T13:30:15.344Z,24.40
2022-07-31T13:32:47.959Z,24.30
2022-07-31T13:35:26.405Z,24.40
2022-07-31T13:37:59.001Z,24.40
2022-07-31T13:40:49.256Z,24.50
2022-07-31T13:43:21.566Z,24.50
2022-07-31T13:45:54.694Z,24.50
2022-07-31T13:48:23.317Z,24.80
2022-07-31T13:50:51.620Z,24.90
2022-07-31T13:53:19.896Z,25.00
2022-07-31T13:55:50.229Z,25.10
2022-07-31T13:58:20.026Z,25.10
2022-07-31T14:00:48.780Z,25.20
2022-07-31T14:03:18.472Z,25.40
2022-07-31T14:05:49.825Z,25.40
2022-07-31T14:08:32.683Z,25.20
2022-07-31T14:11:13.699Z,25.10
2022-07-31T14:13:44.523Z,24.90
2022-07-31T14:16:12.757Z,25.00
2022-07-31T14:18:41.064Z,25.00
2022-07-31T14:21:09.281Z,25.10
2022-07-31T14:23:40.628Z,24.90
2022-07-31T14:26:09.288Z,24.80
2022-07-31T14:28:37.653Z,24.70
2022-07-31T14:31:07.280Z,24.60
2022-07-31T14:33:35.555Z,24.50
2022-07-31T14:36:05.875Z,24.50
2022-07-31T14:38:34.162Z,24.50
2022-07-31T14:41:03.896Z,24.60
2022-07-31T14:43:32.466Z,24.50
2022-07-31T14:46:00.703Z,24.50
2022-07-31T14:48:30.358Z,24.60
2022-07-31T14:50:58.574Z,24.70
2022-07-31T14:53:26.864Z,24.70
2022-07-31T14:55:55.160Z,24.90
2022-07-31T14:58:32.058Z,24.90
2022-07-31T15:01:02.581Z,24.90
2022-07-31T15:03:32.432Z,24.90
2022-07-31T15:06:39.385Z,24.80
2022-07-31T15:08:48.969Z,24.80
2022-07-31T15:11:17.334Z,24.60
2022-07-31T15:13:45.648Z,24.60
2022-07-31T15:16:13.923Z,24.60
2022-07-31T15:18:43.630Z,24.50
2022-07-31T15:21:13.282Z,24.50
2022-07-31T15:23:41.588Z,24.40
2022-07-31T15:26:10.163Z,24.20
2022-07-31T15:28:38.413Z,24.10
2022-07-31T15:31:07.389Z,24.10
2022-07-31T15:33:35.775Z,24.10
2022-07-31T15:36:05.640Z,24.20
2022-07-31T15:38:33.892Z,24.20
2022-07-31T15:41:02.423Z,24.20
2022-07-31T15:43:32.034Z,24.20
2022-07-31T15:46:06.944Z,24.20
2022-07-31T15:48:35.223Z,24.20
2022-07-31T15:51:05.322Z,24.30
2022-07-31T15:53:39.000Z,24.30
2022-07-31T15:56:07.641Z,24.30
2022-07-31T15:58:35.901Z,24.20
2022-07-31T16:01:04.286Z,24.00
2022-07-31T16:03:50.802Z,23.90
2022-07-31T16:06:21.028Z,23.90
2022-07-31T16:08:56.530Z,23.80
2022-07-31T16:11:24.794Z,23.80
2022-07-31T16:14:13.024Z,23.80
2022-07-31T16:16:45.733Z,23.70
2022-07-31T16:19:15.228Z,23.70
2022-07-31T16:21:45.011Z,23.70
2022-07-31T16:24:13.277Z,23.30
2022-07-31T16:26:41.579Z,23.00
2022-07-31T16:29:09.824Z,22.50
2022-07-31T16:31:45.845Z,22.20
2022-07-31T16:34:14.091Z,22.20
2022-07-31T16:36:44.142Z,22.40
2022-07-31T16:39:20.567Z,22.50
2022-07-31T16:41:55.005Z,22.40
2022-07-31T16:44:23.500Z,22.30
2022-07-31T16:46:54.933Z,22.20
2022-07-31T16:49:35.564Z,22.20
2022-07-31T16:52:07.200Z,22.20
2022-07-31T16:54:36.931Z,22.20
2022-07-31T16:57:05.714Z,22.20
2022-07-31T16:59:34.497Z,22.20
2022-07-31T17:02:22.761Z,22.20
2022-07-31T17:04:54.023Z,22.10
2022-07-31T17:07:22.608Z,22.00
2022-07-31T17:09:52.279Z,22.00
2022-07-31T17:12:21.067Z,21.90
2022-07-31T17:14:49.839Z,21.90
2022-07-31T17:17:18.920Z,21.90
2022-07-31T17:19:47.609Z,21.80
2022-07-31T17:22:18.499Z,21.80
2022-07-31T17:24:50.506Z,21.80
2022-07-31T17:27:21.533Z,21.70
2022-07-31T17:29:50.191Z,21.70
2022-07-31T17:32:18.539Z,21.40
2022-07-31T17:34:49.242Z,21.30
2022-07-31T17:37:18.326Z,21.20
2022-07-31T17:39:46.613Z,21.00
2022-07-31T17:42:15.196Z,21.00
2022-07-31T17:44:51.923Z,20.70
2022-07-31T17:47:25.624Z,20.70
2022-07-31T17:49:54.193Z,20.70
2022-07-31T17:52:22.715Z,20.70
2022-07-31T17:54:52.270Z,20.80
2022-07-31T17:57:22.828Z,20.80
2022-07-31T17:59:53.472Z,20.70
2022-07-31T18:02:21.813Z,20.80
2022-07-31T18:04:50.156Z,20.90
2022-07-31T18:07:19.594Z,21.00
2022-07-31T18:09:48.059Z,21.00
2022-07-31T18:12:16.861Z,20.90
2022-07-31T18:14:46.343Z,20.80
2022-07-31T18:17:16.021Z,20.80
2022-07-31T18:19:44.275Z,20.90
2022-07-31T18:22:12.573Z,20.80
2022-07-31T18:24:40.917Z,20.80
2022-07-31T18:27:09.213Z,20.80
2022-07-31T18:29:37.669Z,20.80
2022-07-31T18:32:08.296Z,20.70
2022-07-31T18:34:38.122Z,20.80
2022-07-31T18:37:06.460Z,20.80
2022-07-31T18:39:34.781Z,20.70
2022-07-31T18:42:17.535Z,20.70
2022-07-31T18:44:45.826Z,20.70
2022-07-31T18:47:14.093Z,20.70
2022-07-31T18:50:59.862Z,20.70
2022-07-31T18:52:32.123Z,20.60
2022-07-31T18:55:00.662Z,20.60
2022-07-31T18:57:28.896Z,20.70
2022-07-31T18:59:57.151Z,20.60
2022-07-31T19:02:25.514Z,20.50
2022-07-31T19:04:55.278Z,20.50
2022-07-31T19:07:23.652Z,20.40
2022-07-31T19:09:51.882Z,20.40
2022-07-31T19:12:20.221Z,20.40
2022-07-31T19:14:48.410Z,20.40
2022-07-31T19:17:21.262Z,20.30
2022-07-31T19:20:00.372Z,20.30
2022-07-31T19:22:31.914Z,20.20
2022-07-31T19:25:00.199Z,20.30
2022-07-31T19:27:48.484Z,20.20
2022-07-31T19:30:16.772Z,20.20
2022-07-31T19:32:45.024Z,20.20
2022-07-31T19:35:13.234Z,20.20
2022-07-31T19:37:42.856Z,20.20
2022-07-31T19:40:12.125Z,20.20
2022-07-31T19:42:40.554Z,20.20
2022-07-31T19:45:09.428Z,20.20
2022-07-31T19:47:37.732Z,20.10
2022-07-31T19:50:07.462Z,20.10
2022-07-31T19:52:35.806Z,20.10
2022-07-31T19:55:05.878Z,20.10
2022-07-31T19:57:34.224Z,20.00
2022-07-31T20:00:02.554Z,20.00
2022-07-31T20:02:32.500Z,19.90
2022-07-31T20:05:00.775Z,19.90
2022-07-31T20:07:32.711Z,19.90
2022-07-31T20:10:01.864Z,19.90
2022-07-31T20:12:31.563Z,19.90
2022-07-31T20:15:00.035Z,19.90
2022-07-31T20:17:28.557Z,20.00
2022-07-31T20:20:02.896Z,20.00
2022-07-31T20:22:44.158Z,19.90
2022-07-31T20:25:19.780Z,19.90
2022-07-31T20:27:50.834Z,19.90
2022-07-31T20:30:22.069Z,19.90
2022-07-31T20:32:51.522Z,19.90
2022-07-31T20:35:30.578Z,19.90
2022-07-31T20:38:09.055Z,19.90
2022-07-31T20:40:49.936Z,19.90
2022-07-31T20:43:23.627Z,19.90
2022-07-31T20:45:52.422Z,19.90
2022-07-31T20:48:23.926Z,19.90
2022-07-31T20:50:52.713Z,19.90
2022-07-31T20:53:22.166Z,19.90
2022-07-31T20:55:50.975Z,20.00
2022-07-31T20:58:19.459Z,20.00
2022-07-31T21:00:49.708Z,19.90
2022-07-31T21:03:19.168Z,19.90
2022-07-31T21:05:47.665Z,20.00
2022-07-31T21:08:16.405Z,19.90
2022-07-31T21:10:44.702Z,20.00
2022-07-31T21:13:13.295Z,20.00
2022-07-31T21:15:44.821Z,19.90
2022-07-31T21:18:16.871Z,19.90
2022-07-31T21:20:51.842Z,19.90
2022-07-31T21:23:23.210Z,19.90
2022-07-31T21:25:52.046Z,19.90
2022-07-31T21:28:20.632Z,19.90
2022-07-31T21:30:49.203Z,19.90
2022-07-31T21:33:19.109Z,19.90
2022-07-31T21:35:47.988Z,20.00
2022-07-31T21:38:16.782Z,20.00
2022-07-31T21:40:45.581Z,19.90
2022-07-31T21:43:16.741Z,20.00
2022-07-31T21:45:54.969Z,20.00
2022-07-31T21:48:27.921Z,19.90
2022-07-31T21:50:56.886Z,19.90
2022-07-31T21:53:25.806Z,19.90
2022-07-31T21:55:54.112Z,19.90
2022-07-31T21:58:22.512Z,19.90
2022-07-31T22:00:50.772Z,19.90
2022-07-31T22:03:19.036Z,19.90
2022-07-31T22:06:06.190Z,19.90
2022-07-31T22:08:34.426Z,19.90
2022-07-31T22:11:02.668Z,19.90
2022-07-31T22:13:30.937Z,19.90
2022-07-31T22:16:01.013Z,19.90
2022-07-31T22:18:34.513Z,19.90
2022-07-31T22:21:06.434Z,19.90
2022-07-31T22:23:35.299Z,19.90
2022-07-31T22:26:04.216Z,19.90
2022-07-31T22:28:32.871Z,19.90
2022-07-31T22:31:02.050Z,19.90
2022-07-31T22:33:30.405Z,19.90
2022-07-31T22:36:02.668Z,19.90
2022-07-31T22:38:32.490Z,19.90
2022-07-31T22:41:01.541Z,19.90
2022-07-31T22:44:10.751Z,19.90
2022-07-31T22:46:18.984Z,19.80
2022-07-31T22:48:47.617Z,19.90
2022-07-31T22:51:16.103Z,19.90
2022-07-31T22:53:48.872Z,19.80
2022-07-31T22:56:17.984Z,19.80
2022-07-31T22:58:46.311Z,19.80
2022-07-31T23:01:14.735Z,19.80
2022-07-31T23:03:42.960Z,19.80
2022-07-31T23:06:31.205Z,19.80
2022-07-31T23:09:01.364Z,19.80
2022-07-31T23:11:29.650Z,19.80
2022-07-31T23:13:57.939Z,19.80
2022-07-31T23:16:26.437Z,19.80
2022-07-31T23:18:54.954Z,19.80
2022-07-31T23:21:23.924Z,19.70
2022-07-31T23:23:52.415Z,19.80
2022-07-31T23:26:23.999Z,19.80
2022-07-31T23:28:53.451Z,19.80
2022-07-31T23:31:22.628Z,19.80
2022-07-31T23:33:51.904Z,19.80
2022-07-31T23:36:20.831Z,19.80
2022-07-31T23:38:49.225Z,19.80
2022-07-31T23:41:38.889Z,19.70
2022-07-31T23:44:10.453Z,19.80
2022-07-31T23:46:39.550Z,19.80
2022-07-31T23:49:09.221Z,19.80
2022-07-31T23:51:37.667Z,19.70
2022-07-31T23:54:06.272Z,19.70
2022-07-31T23:56:34.910Z,19.80
2022-07-31T23:59:03.165Z,19.70
